Time;durP1;ratioP1;P1;durP2;ratioP2;P2;SDS_P1;SDS_P2;PMS_P1;PMS_P2;Temp;Humidity;BMP_temperature;BMP_pressure;BME280_temperature;BME280_humidity;BME280_pressure;Samples;Min_cycle;Max_cycle;Signal;HPM_P1;HPM_P2
2021/07/03 00:00:13;;;;;;;4.47;3.80;;;;;;;16.36;79.07;98503.61;262643;1090;22865;-73
2021/07/03 00:05:19;;;;;;;4.05;3.65;;;;;;;16.34;79.30;98503.14;262856;1088;23007;-73
2021/07/03 00:10:29;;;;;;;5.85;4.10;;;;;;;16.30;79.04;98499.52;262346;1090;22795;-72
2021/07/03 00:15:41;;;;;;;5.05;4.10;;;;;;;16.21;79.08;98499.61;262454;1090;25861;-73
2021/07/03 00:20:51;;;;;;;4.80;4.25;;;;;;;16.12;79.37;98501.59;262363;1090;22799;-71
2021/07/03 00:25:55;;;;;;;4.95;3.85;;;;;;;16.03;79.23;98498.97;262472;1090;22815;-71
2021/07/03 00:30:58;;;;;;;6.03;5.13;;;;;;;15.91;79.69;98495.09;262583;1088;22787;-72
2021/07/03 00:36:02;;;;;;;6.97;5.23;;;;;;;15.82;79.56;98497.09;262357;1090;22896;-71
2021/07/03 00:41:05;;;;;;;6.90;5.10;;;;;;;15.76;79.99;98495.66;262434;1090;22834;-73
2021/07/03 00:46:10;;;;;;;5.60;5.10;;;;;;;15.71;80.30;98493.96;262337;1090;22861;-72
2021/07/03 00:51:14;;;;;;;7.35;5.30;;;;;;;15.64;80.26;98493.70;262296;1090;22790;-73
2021/07/03 00:56:26;;;;;;;6.20;5.55;;;;;;;15.59;80.29;98498.50;262685;1090;22853;-72
2021/07/03 01:01:48;;;;;;;7.65;5.45;;;;;;;15.53;80.27;98504.08;262321;1089;22790;-72
2021/07/03 01:06:52;;;;;;;7.90;5.45;;;;;;;15.49;80.42;98505.86;262570;1089;22810;-71
2021/07/03 01:12:11;;;;;;;6.43;5.60;;;;;;;15.45;80.78;98504.15;262674;1090;22772;-71
2021/07/03 01:17:18;;;;;;;6.30;5.57;;;;;;;15.43;80.76;98501.78;262511;1090;22848;-72
2021/07/03 01:22:34;;;;;;;6.00;5.05;;;;;;;15.38;80.76;98508.13;262639;1090;22913;-72
2021/07/03 01:27:44;;;;;;;6.23;5.27;;;;;;;15.34;80.82;98501.03;262277;1089;25970;-72
2021/07/03 01:32:47;;;;;;;6.67;5.33;;;;;;;15.31;81.03;98510.56;262402;1090;22790;-72
2021/07/03 01:37:51;;;;;;;7.70;5.90;;;;;;;15.25;81.13;98509.18;262692;1088;23762;-72
2021/07/03 01:42:55;;;;;;;8.10;5.85;;;;;;;15.19;81.11;98511.27;262443;1089;22956;-73
2021/07/03 01:47:59;;;;;;;7.95;6.20;;;;;;;15.11;81.16;98520.19;262327;1090;22918;-72
2021/07/03 01:53:05;;;;;;;7.50;6.00;;;;;;;15.06;81.21;98523.06;262500;1089;22838;-72
2021/07/03 01:58:20;;;;;;;11.10;6.97;;;;;;;15.01;81.40;98517.84;262359;1090;22928;-71
2021/07/03 02:03:45;;;;;;;13.20;7.25;;;;;;;14.94;81.56;98510.27;261924;1090;22770;-71
2021/07/03 02:08:54;;;;;;;13.20;6.53;;;;;;;14.92;81.72;98531.36;261895;1090;22920;-72
2021/07/03 02:13:58;;;;;;;9.00;6.90;;;;;;;14.89;81.75;98540.89;261900;1090;22865;-72
2021/07/03 02:19:10;;;;;;;10.55;7.60;;;;;;;14.84;81.92;98527.59;262118;1090;22792;-73
2021/07/03 02:24:15;;;;;;;10.00;7.70;;;;;;;14.81;82.06;98530.92;261992;1090;22826;-72
2021/07/03 02:29:32;;;;;;;10.30;7.30;;;;;;;14.82;82.15;98524.42;262451;1090;22790;-73
2021/07/03 02:34:37;;;;;;;13.10;7.47;;;;;;;14.79;82.16;98524.26;262430;1090;23230;-72
2021/07/03 02:39:41;;;;;;;12.10;7.95;;;;;;;14.75;82.33;98524.13;262839;1090;22794;-72
2021/07/03 02:44:44;;;;;;;11.30;8.85;;;;;;;14.74;82.25;98524.45;262361;1088;22800;-72
2021/07/03 02:49:49;;;;;;;9.90;7.05;;;;;;;14.77;82.61;98535.37;262406;1089;22779;-72
2021/07/03 02:54:52;;;;;;;13.20;7.85;;;;;;;14.82;82.62;98535.20;262760;1090;22765;-73
2021/07/03 02:59:57;;;;;;;11.10;8.95;;;;;;;14.87;82.70;98537.73;262704;1088;22766;-73
2021/07/03 03:05:01;;;;;;;13.93;9.10;;;;;;;14.97;82.62;98544.69;262387;1090;22780;-72
2021/07/03 03:10:07;;;;;;;12.75;9.00;;;;;;;15.14;82.83;98549.22;262273;1089;22838;-72
2021/07/03 03:15:15;;;;;;;14.45;9.20;;;;;;;15.31;82.66;98544.86;262665;1089;22767;-72
2021/07/03 03:20:20;;;;;;;15.75;9.75;;;;;;;15.44;82.49;98543.83;262754;1090;25973;-72
2021/07/03 03:25:37;;;;;;;12.75;8.65;;;;;;;15.57;82.33;98542.00;262363;1090;22773;-72
2021/07/03 03:30:52;;;;;;;13.15;9.25;;;;;;;15.74;82.32;98530.32;261834;1090;22918;-73
2021/07/03 03:36:04;;;;;;;13.45;8.80;;;;;;;15.96;82.43;98533.84;262383;1090;22783;-72
2021/07/03 03:41:21;;;;;;;11.80;8.10;;;;;;;16.15;82.04;98536.08;262345;1090;22953;-72
2021/07/03 03:46:25;;;;;;;12.50;9.20;;;;;;;16.24;81.54;98542.98;262333;1090;22786;-72
2021/07/03 03:51:30;;;;;;;11.23;8.67;;;;;;;16.33;81.39;98544.83;262359;1088;23042;-71
2021/07/03 03:56:34;;;;;;;11.35;8.90;;;;;;;16.41;80.99;98541.23;262306;1090;22921;-72
2021/07/03 04:01:38;;;;;;;13.40;9.27;;;;;;;16.40;80.80;98542.38;262724;1089;24343;-71
2021/07/03 04:06:42;;;;;;;12.13;8.67;;;;;;;16.35;80.70;98537.94;261956;1090;27664;-73
2021/07/03 04:11:49;;;;;;;13.47;9.13;;;;;;;16.34;80.85;98540.98;262353;1089;26306;-73
2021/07/03 04:16:55;;;;;;;11.60;8.80;;;;;;;16.30;80.80;98546.28;262360;1090;22773;-72
2021/07/03 04:22:01;;;;;;;13.10;10.20;;;;;;;16.33;80.71;98547.53;262486;1090;22799;-72
2021/07/03 04:27:06;;;;;;;14.30;9.90;;;;;;;16.34;80.75;98546.39;262660;1090;24703;-73
2021/07/03 04:32:22;;;;;;;11.20;9.30;;;;;;;16.37;80.94;98541.12;262274;1090;26316;-73
2021/07/03 04:37:45;;;;;;;13.00;9.40;;;;;;;16.33;80.54;98545.61;261877;1088;27265;-73
2021/07/03 04:42:50;;;;;;;12.97;10.33;;;;;;;16.34;80.65;98552.60;262384;1090;22860;-73
2021/07/03 04:47:58;;;;;;;11.45;9.55;;;;;;;16.34;80.49;98558.01;262363;1090;22845;-73
2021/07/03 04:53:03;;;;;;;12.90;10.15;;;;;;;16.36;80.46;98554.97;262385;1090;25983;-72
2021/07/03 04:58:07;;;;;;;16.10;10.95;;;;;;;16.37;80.61;98538.41;262414;1090;26226;-72
2021/07/03 05:03:11;;;;;;;12.73;11.17;;;;;;;16.39;80.44;98543.48;262483;1089;26245;-73
2021/07/03 05:08:14;;;;;;;13.45;10.35;;;;;;;16.47;80.35;98564.25;261863;1090;25865;-73
2021/07/03 05:13:18;;;;;;;16.33;10.67;;;;;;;16.56;80.49;98554.15;261933;1090;22777;-72
2021/07/03 05:18:23;;;;;;;13.50;10.50;;;;;;;16.65;80.29;98564.88;261826;1089;22773;-72
2021/07/03 05:23:27;;;;;;;13.05;10.80;;;;;;;16.69;79.88;98551.45;262046;1090;22761;-73
2021/07/03 05:28:51;;;;;;;15.35;10.70;;;;;;;16.75;79.88;98540.09;262094;1089;22801;-72
2021/07/03 05:33:54;;;;;;;14.90;11.50;;;;;;;16.85;79.59;98555.11;262243;1089;22745;-72
2021/07/03 05:38:58;;;;;;;14.90;11.40;;;;;;;16.95;79.60;98564.73;262087;1090;22901;-72
2021/07/03 05:44:02;;;;;;;14.60;12.60;;;;;;;17.07;79.14;98569.39;261871;1090;22774;-73
2021/07/03 05:49:06;;;;;;;16.60;12.25;;;;;;;17.22;79.02;98567.92;261956;1088;22799;-73
2021/07/03 05:54:10;;;;;;;14.60;12.10;;;;;;;17.33;78.84;98570.98;262155;1090;22778;-73
2021/07/03 05:59:25;;;;;;;14.85;13.05;;;;;;;17.43;78.36;98563.20;261874;1090;22786;-72
2021/07/03 06:04:32;;;;;;;13.10;11.35;;;;;;;17.66;78.19;98561.95;261877;1090;24153;-72
2021/07/03 06:09:51;;;;;;;13.95;12.55;;;;;;;17.87;77.42;98569.93;261991;1088;22779;-72
2021/07/03 06:15:05;;;;;;;15.60;13.20;;;;;;;18.03;76.86;98578.16;262148;1089;23456;-73
2021/07/03 06:20:22;;;;;;;13.65;11.65;;;;;;;18.14;76.80;98573.83;261869;1090;26233;-72
2021/07/03 06:25:26;;;;;;;15.65;11.50;;;;;;;18.37;76.21;98579.53;261819;1089;22776;-72
2021/07/03 06:30:30;;;;;;;16.25;13.40;;;;;;;18.54;75.69;98585.80;262171;1090;23286;-72
2021/07/03 06:35:35;;;;;;;13.50;12.20;;;;;;;18.75;74.85;98586.36;262439;1089;23712;-72
2021/07/03 06:40:40;;;;;;;14.23;12.73;;;;;;;18.95;74.21;98586.50;262841;1090;25983;-71
2021/07/03 06:45:45;;;;;;;12.50;11.27;;;;;;;19.21;74.23;98580.57;263061;1089;22851;-72
2021/07/03 06:50:52;;;;;;;11.73;10.53;;;;;;;19.38;73.48;98590.28;262607;1089;22927;-72
2021/07/03 06:55:58;;;;;;;11.73;10.47;;;;;;;19.54;72.80;98592.19;262251;1089;22793;-71
2021/07/03 07:01:14;;;;;;;13.37;11.03;;;;;;;19.67;71.79;98593.67;262733;1088;22784;-71
2021/07/03 07:06:18;;;;;;;15.35;10.65;;;;;;;19.65;71.38;98599.44;262598;1090;24458;-71
2021/07/03 07:11:24;;;;;;;13.33;10.43;;;;;;;19.76;71.01;98588.82;262256;1090;22767;-72
2021/07/03 07:16:35;;;;;;;11.87;9.97;;;;;;;19.89;70.58;98594.17;262374;1090;22963;-72
2021/07/03 07:21:38;;;;;;;11.20;10.03;;;;;;;19.94;70.68;98591.19;262702;1088;22763;-72
2021/07/03 07:26:46;;;;;;;14.38;9.70;;;;;;;20.06;70.58;98592.98;262003;1089;22858;-71
2021/07/03 07:31:56;;;;;;;11.43;10.33;;;;;;;20.23;69.75;98594.49;262899;1089;22790;-72
2021/07/03 07:37:12;;;;;;;9.50;8.48;;;;;;;20.27;69.01;98595.36;262585;1090;22769;-72
2021/07/03 07:42:29;;;;;;;8.43;7.53;;;;;;;20.32;68.13;98593.14;269438;1090;22636;-73
2021/07/03 07:47:49;;;;;;;12.50;9.38;;;;;;;20.36;68.26;98587.78;263796;1090;22851;-71
2021/07/03 07:52:52;;;;;;;9.78;8.73;;;;;;;20.44;67.46;98589.50;263715;1089;22940;-72
2021/07/03 07:57:56;;;;;;;9.63;7.95;;;;;;;20.65;67.04;98583.68;262080;1090;22822;-73
2021/07/03 08:03:03;;;;;;;9.40;8.05;;;;;;;20.67;66.04;98591.48;262093;1090;22732;-72
2021/07/03 08:08:17;;;;;;;9.78;8.50;;;;;;;20.65;66.21;98591.84;262029;1088;25851;-72
2021/07/03 08:13:21;;;;;;;12.43;7.65;;;;;;;20.80;67.02;98575.80;262107;1089;22916;-72
2021/07/03 08:18:26;;;;;;;11.13;8.53;;;;;;;20.92;66.08;98583.80;262290;1090;22965;-72
2021/07/03 08:23:37;;;;;;;12.33;8.33;;;;;;;21.08;67.02;98583.67;262072;1090;22787;-72
2021/07/03 08:29:01;;;;;;;9.48;7.75;;;;;;;21.32;66.49;98579.00;262088;1090;22780;-72
2021/07/03 08:34:12;;;;;;;7.95;7.15;;;;;;;21.63;65.32;98577.16;262323;1088;26357;-72
2021/07/03 08:39:39;;;;;;;12.23;8.18;;;;;;;21.72;64.41;98577.69;262333;1089;22767;-73
2021/07/03 08:44:47;;;;;;;7.63;6.75;;;;;;;21.99;64.05;98574.93;262874;1090;24462;-71
2021/07/03 08:49:56;;;;;;;7.27;6.57;;;;;;;22.22;61.30;98578.34;262448;1090;22839;-73
2021/07/03 08:55:05;;;;;;;7.83;6.60;;;;;;;22.44;61.55;98575.92;261980;1089;22772;-73
2021/07/03 09:00:10;;;;;;;7.30;6.60;;;;;;;22.62;60.70;98573.36;262811;1088;22808;-72
2021/07/03 09:05:30;;;;;;;7.27;6.17;;;;;;;22.55;60.08;98567.83;262549;1089;22780;-72
2021/07/03 09:10:38;;;;;;;8.23;6.73;;;;;;;22.52;59.88;98572.08;262773;1089;22762;-72
2021/07/03 09:15:45;;;;;;;8.53;7.05;;;;;;;22.32;59.35;98563.27;262904;1089;23621;-71
2021/07/03 09:20:52;;;;;;;8.35;6.58;;;;;;;22.19;59.66;98568.19;262530;1090;22766;-70
2021/07/03 09:26:00;;;;;;;7.10;6.40;;;;;;;22.23;59.18;98560.02;262574;1088;22788;-72
2021/07/03 09:31:05;;;;;;;9.50;6.87;;;;;;;22.33;58.68;98553.13;262958;1090;22778;-72
2021/07/03 09:36:17;;;;;;;7.20;6.50;;;;;;;22.43;58.86;98552.51;262523;1089;26223;-72
2021/07/03 09:41:35;;;;;;;7.38;6.30;;;;;;;22.66;59.61;98546.88;262615;1090;27048;-72
2021/07/03 09:46:40;;;;;;;6.90;6.20;;;;;;;23.05;58.58;98542.95;262692;1089;22989;-72
2021/07/03 09:51:50;;;;;;;7.50;6.80;;;;;;;23.36;57.38;98538.91;262867;1090;22764;-71
2021/07/03 09:57:00;;;;;;;7.13;6.43;;;;;;;23.44;55.82;98542.48;263109;1090;27076;-72
2021/07/03 10:02:11;;;;;;;7.10;6.50;;;;;;;23.56;56.08;98528.52;263072;1090;22764;-72
2021/07/03 10:07:23;;;;;;;7.57;6.67;;;;;;;23.59;55.61;98518.77;262638;1090;22896;-72
2021/07/03 10:12:29;;;;;;;10.10;7.15;;;;;;;23.51;55.95;98526.13;262546;1090;23559;-72
2021/07/03 10:17:36;;;;;;;;;;;;;;;23.65;56.31;98522.70;262681;1089;22869;-71
2021/07/03 10:22:54;;;;;;;7.20;6.50;;;;;;;24.02;56.74;98502.59;262398;1090;21521;-71
2021/07/03 10:28:00;;;;;;;7.68;6.70;;;;;;;24.22;53.79;98505.00;262725;1089;25854;-71
2021/07/03 10:33:22;;;;;;;7.88;7.13;;;;;;;24.19;52.43;98497.55;262503;1090;23039;-72
2021/07/03 10:38:38;;;;;;;5.83;5.00;;;;;;;24.28;50.03;98494.46;262743;1088;22763;-72
2021/07/03 10:43:43;;;;;;;6.03;4.95;;;;;;;24.18;50.55;98487.78;262073;1089;24460;-72
2021/07/03 10:48:54;;;;;;;5.48;4.95;;;;;;;24.38;49.97;98494.47;262774;1089;26092;-72
2021/07/03 10:54:07;;;;;;;6.00;5.40;;;;;;;24.60;49.60;98480.83;262533;1089;22869;-72
2021/07/03 10:59:12;;;;;;;5.58;4.95;;;;;;;24.64;49.76;98481.64;263152;1089;22850;-72
2021/07/03 11:04:29;;;;;;;5.38;4.80;;;;;;;24.64;48.73;98480.84;260847;1089;25855;-71
2021/07/03 11:10:05;;;;;;;5.58;5.08;;;;;;;24.74;49.53;98482.82;262639;1090;22815;-71
2021/07/03 11:15:14;;;;;;;4.90;4.50;;;;;;;24.65;47.16;98485.15;262547;1090;22953;-71
2021/07/03 11:20:24;;;;;;;5.48;4.98;;;;;;;24.47;47.33;98474.95;262665;1089;22889;-71
2021/07/03 11:25:30;;;;;;;7.13;5.27;;;;;;;24.30;48.76;98476.45;262918;1090;22762;-71
2021/07/03 11:30:35;;;;;;;5.75;5.25;;;;;;;24.07;49.57;98477.58;263093;1090;22770;-71
2021/07/03 11:35:48;;;;;;;5.78;5.15;;;;;;;23.90;50.32;98472.84;262475;1089;22790;-72
2021/07/03 11:41:01;;;;;;;6.50;5.90;;;;;;;23.88;50.03;98475.16;262702;1090;22772;-72
2021/07/03 11:46:07;;;;;;;7.18;6.48;;;;;;;23.82;50.52;98465.75;262466;1090;27661;-72
2021/07/03 11:51:10;;;;;;;7.40;6.03;;;;;;;23.90;50.40;98470.88;262117;1090;22801;-72
2021/07/03 11:56:18;;;;;;;6.13;5.53;;;;;;;23.94;50.22;98470.91;262808;1089;22700;-72
2021/07/03 12:01:30;;;;;;;5.70;5.13;;;;;;;23.83;49.68;98467.32;262574;1090;22781;-71
2021/07/03 12:12:30;;;;;;;6.25;5.58;;;;;;;23.91;49.80;98452.53;262005;1089;22924;-71
2021/07/03 12:17:46;;;;;;;6.38;5.78;;;;;;;23.84;50.42;98452.45;262772;1090;22811;-71
2021/07/03 12:23:00;;;;;;;6.83;5.43;;;;;;;23.70;50.27;98451.25;262223;1090;22933;-72
2021/07/03 12:28:10;;;;;;;6.00;5.40;;;;;;;23.63;50.94;98439.48;262275;1090;22856;-72
2021/07/03 12:33:16;;;;;;;6.33;5.73;;;;;;;23.58;50.82;98440.64;261379;1090;22825;-72
2021/07/03 12:38:25;;;;;;;7.05;5.43;;;;;;;23.54;50.92;98439.84;261888;1090;22789;-73
2021/07/03 12:43:31;;;;;;;6.90;6.23;;;;;;;23.48;50.85;98433.19;262083;1089;22864;-72
2021/07/03 12:48:40;;;;;;;7.27;5.83;;;;;;;23.45;50.92;98431.20;261827;1090;22878;-72
2021/07/03 12:53:48;;;;;;;5.93;5.40;;;;;;;23.54;50.18;98426.17;261975;1090;22846;-72
2021/07/03 12:59:07;;;;;;;8.03;7.23;;;;;;;23.68;50.42;98418.02;261853;1090;22880;-72
2021/07/03 13:04:11;;;;;;;6.18;5.53;;;;;;;24.01;51.21;98418.95;261949;1090;23704;-72
2021/07/03 13:09:22;;;;;;;6.50;5.90;;;;;;;24.13;49.05;98423.26;261822;1090;22770;-72
2021/07/03 13:14:35;;;;;;;8.75;7.95;;;;;;;24.21;49.03;98416.63;261933;1089;22766;-72
2021/07/03 13:19:39;;;;;;;6.73;6.08;;;;;;;24.25;49.00;98424.86;261907;1089;23456;-73
2021/07/03 13:24:55;;;;;;;8.00;6.28;;;;;;;24.18;49.44;98422.12;261931;1089;22850;-71
2021/07/03 13:30:16;;;;;;;5.88;5.38;;;;;;;24.15;49.43;98418.20;261984;1088;22767;-71
2021/07/03 13:35:22;;;;;;;5.90;5.40;;;;;;;24.20;48.44;98436.18;261896;1090;26293;-71
2021/07/03 13:40:25;;;;;;;6.50;5.88;;;;;;;24.15;47.58;98425.60;261879;1090;23736;-72
2021/07/03 13:45:32;;;;;;;5.98;5.48;;;;;;;24.13;48.13;98430.70;261916;1090;25982;-72
2021/07/03 13:50:36;;;;;;;6.38;5.73;;;;;;;24.09;48.09;98422.47;261792;1089;22890;-72
2021/07/03 13:55:39;;;;;;;6.58;6.00;;;;;;;23.99;48.55;98407.59;261858;1090;26053;-72
2021/07/03 14:00:44;;;;;;;6.25;5.65;;;;;;;24.01;49.31;98401.77;261925;1089;23376;-71
2021/07/03 14:05:49;;;;;;;6.28;5.70;;;;;;;24.12;49.06;98405.30;262114;1090;22873;-71
2021/07/03 14:10:52;;;;;;;7.45;5.70;;;;;;;24.19;49.22;98405.30;261912;1090;22864;-72
2021/07/03 14:15:57;;;;;;;5.53;5.03;;;;;;;24.30;48.97;98396.31;261865;1090;22789;-72
2021/07/03 14:21:14;;;;;;;7.15;5.20;;;;;;;24.43;48.45;98392.80;261950;1090;23052;-70
2021/07/03 14:26:17;;;;;;;6.28;5.73;;;;;;;24.31;48.43;98398.66;260856;1090;23004;-72
2021/07/03 14:31:20;;;;;;;6.70;6.10;;;;;;;24.16;48.85;98397.08;261912;1090;22850;-72
2021/07/03 14:36:24;;;;;;;6.38;5.78;;;;;;;23.99;49.00;98387.67;261849;1090;24333;-71
2021/07/03 14:41:27;;;;;;;6.88;6.13;;;;;;;23.81;49.37;98399.34;261907;1089;22803;-71
2021/07/03 14:46:31;;;;;;;6.63;5.48;;;;;;;23.71;49.51;98391.87;261857;1090;22985;-71
2021/07/03 14:51:34;;;;;;;6.50;5.28;;;;;;;23.61;49.62;98390.66;262037;1089;22778;-71
2021/07/03 14:56:38;;;;;;;5.25;4.85;;;;;;;23.54;49.76;98398.84;261851;1090;22821;-72
2021/07/03 15:02:06;;;;;;;7.67;5.27;;;;;;;23.49;50.14;98397.27;262433;1089;25858;-71
2021/07/03 15:07:27;;;;;;;5.80;5.15;;;;;;;23.38;49.91;98391.75;262338;1090;22834;-72
2021/07/03 15:12:33;;;;;;;6.05;5.45;;;;;;;23.29;50.44;98382.33;261865;1090;22814;-71
2021/07/03 15:17:43;;;;;;;7.13;5.50;;;;;;;23.36;50.59;98383.13;261977;1090;22830;-71
2021/07/03 15:22:47;;;;;;;6.10;5.45;;;;;;;23.41;50.72;98382.00;262019;1090;22931;-71
2021/07/03 15:27:50;;;;;;;5.20;4.70;;;;;;;23.47;50.64;98385.15;261902;1090;22905;-72
2021/07/03 15:33:04;;;;;;;5.40;4.85;;;;;;;23.50;50.81;98381.64;261928;1089;22950;-71
2021/07/03 15:38:09;;;;;;;6.13;4.65;;;;;;;23.57;50.05;98378.93;262298;1090;22851;-71
2021/07/03 15:43:25;;;;;;;5.08;4.68;;;;;;;23.58;49.53;98380.50;261642;1090;22767;-72
2021/07/03 15:48:34;;;;;;;5.13;4.65;;;;;;;23.63;50.08;98382.88;261852;1090;22831;-72
2021/07/03 15:53:45;;;;;;;5.48;4.98;;;;;;;23.68;49.38;98385.22;262574;1088;22918;-71
2021/07/03 15:59:08;;;;;;;5.13;4.63;;;;;;;23.62;48.60;98381.30;262231;1090;22840;-72
2021/07/03 16:04:12;;;;;;;5.33;4.50;;;;;;;23.51;48.50;98378.52;262527;1090;22776;-72
2021/07/03 16:09:15;;;;;;;8.00;4.60;;;;;;;23.50;48.86;98376.95;261894;1090;23609;-72
2021/07/03 16:14:21;;;;;;;4.98;4.45;;;;;;;23.54;48.60;98371.50;261933;1090;25826;-72
2021/07/03 16:19:24;;;;;;;5.20;4.70;;;;;;;23.53;48.18;98373.47;261721;1090;22809;-74
2021/07/03 16:24:28;;;;;;;4.65;4.20;;;;;;;23.71;48.27;98372.73;262321;1090;24300;-71
2021/07/03 16:29:32;;;;;;;5.43;4.70;;;;;;;23.95;48.50;98381.41;262422;1089;22771;-72
2021/07/03 16:34:37;;;;;;;5.00;4.53;;;;;;;24.12;48.08;98382.61;262344;1090;24038;-73
2021/07/03 16:39:41;;;;;;;5.28;4.78;;;;;;;24.26;47.89;98385.38;262615;1089;22811;-72
2021/07/03 16:44:47;;;;;;;5.28;4.78;;;;;;;24.37;47.93;98383.43;262120;1089;22929;-72
2021/07/03 16:49:51;;;;;;;8.18;5.60;;;;;;;24.44;47.86;98382.63;262418;1090;22790;-71
2021/07/03 16:54:55;;;;;;;5.45;4.95;;;;;;;24.47;47.75;98394.75;262206;1088;23416;-72
2021/07/03 16:59:58;;;;;;;6.93;5.28;;;;;;;24.57;47.73;98396.73;262385;1090;22862;-71
2021/07/03 17:05:12;;;;;;;5.85;5.30;;;;;;;24.60;47.78;98387.73;262710;1090;22911;-72
2021/07/03 17:10:29;;;;;;;8.13;4.98;;;;;;;24.73;47.94;98386.16;261928;1090;22936;-72
2021/07/03 17:15:34;;;;;;;5.28;4.78;;;;;;;25.96;48.67;98394.00;262687;1089;24371;-71
2021/07/03 17:20:45;;;;;;;5.60;5.10;;;;;;;27.00;46.70;98403.42;262420;1090;22790;-72
2021/07/03 17:26:09;;;;;;;5.25;4.75;;;;;;;27.22;45.42;98392.21;262616;1090;22778;-72
2021/07/03 17:31:12;;;;;;;4.93;4.53;;;;;;;27.73;44.44;98400.65;262180;1090;25855;-71
2021/07/03 17:36:19;;;;;;;5.15;4.65;;;;;;;28.10;43.50;98402.52;261832;1090;22795;-71
2021/07/03 17:41:23;;;;;;;5.00;4.60;;;;;;;27.86;42.65;98404.41;262223;1089;22867;-73
2021/07/03 17:46:26;;;;;;;5.07;4.23;;;;;;;26.91;42.50;98395.66;262255;1089;22783;-71
2021/07/03 17:51:30;;;;;;;5.20;4.73;;;;;;;25.75;43.14;98409.39;262103;1089;22918;-72
2021/07/03 17:56:40;;;;;;;7.48;4.88;;;;;;;24.73;44.68;98402.59;261993;1090;25800;-72
2021/07/03 18:01:45;;;;;;;4.83;4.33;;;;;;;23.97;45.70;98407.21;262293;1090;25970;-72
2021/07/03 18:12:27;;;;;;;4.90;4.43;;;;;;;22.81;47.61;98405.83;261785;1090;22779;-71
2021/07/03 18:17:31;;;;;;;7.18;4.63;;;;;;;22.31;48.29;98406.16;261871;1090;25859;-71
2021/07/03 18:22:44;;;;;;;4.25;3.80;;;;;;;21.97;49.16;98402.73;261965;1089;22802;-72
2021/07/03 18:27:53;;;;;;;6.23;4.07;;;;;;;21.67;49.81;98398.91;262033;1090;22782;-71
2021/07/03 18:32:59;;;;;;;4.10;3.80;;;;;;;21.41;50.65;98415.29;262052;1090;24184;-72
2021/07/03 18:38:12;;;;;;;4.53;4.13;;;;;;;21.16;50.85;98413.01;262142;1090;24299;-71
2021/07/03 18:43:34;;;;;;;6.03;4.13;;;;;;;20.88;51.99;98405.22;261864;1090;22771;-71
2021/07/03 18:48:40;;;;;;;4.88;4.20;;;;;;;20.64;52.14;98401.72;261803;1090;22863;-71
2021/07/03 18:53:47;;;;;;;5.57;4.57;;;;;;;20.40;53.13;98403.66;261909;1088;22804;-71
2021/07/03 18:58:53;;;;;;;5.15;4.18;;;;;;;20.10;53.93;98403.52;262232;1090;23007;-71
2021/07/03 19:03:56;;;;;;;5.23;4.73;;;;;;;19.82;54.65;98404.55;262795;1089;22763;-72
2021/07/03 19:09:00;;;;;;;6.33;4.87;;;;;;;19.57;55.62;98409.47;262288;1090;24308;-71
2021/07/03 19:14:05;;;;;;;6.97;5.23;;;;;;;19.33;56.11;98408.59;262325;1089;22806;-73
2021/07/03 19:19:09;;;;;;;8.45;5.25;;;;;;;19.17;56.85;98415.98;261855;1090;23012;-71
2021/07/03 19:24:14;;;;;;;7.65;5.90;;;;;;;19.02;57.33;98409.47;262547;1089;22928;-70
2021/07/03 19:29:17;;;;;;;10.05;9.00;;;;;;;18.87;58.18;98417.27;262353;1090;24198;-71
2021/07/03 19:34:21;;;;;;;8.10;6.60;;;;;;;18.73;58.82;98425.05;262542;1089;25945;-72
2021/07/03 19:39:31;;;;;;;13.25;10.45;;;;;;;18.57;58.84;98425.06;262709;1090;22847;-72
2021/07/03 19:44:37;;;;;;;8.30;5.55;;;;;;;18.43;59.25;98420.06;262422;1090;22827;-72
2021/07/03 19:49:41;;;;;;;6.95;6.10;;;;;;;18.33;59.52;98417.86;262370;1090;22766;-72
2021/07/03 19:54:44;;;;;;;6.05;5.45;;;;;;;18.22;59.50;98426.52;262835;1090;22768;-71
2021/07/03 19:59:48;;;;;;;7.30;6.00;;;;;;;18.09;59.62;98433.13;262348;1090;22910;-71
2021/07/03 20:04:51;;;;;;;7.55;6.35;;;;;;;17.97;59.68;98430.49;262353;1090;24314;-72
2021/07/03 20:09:55;;;;;;;7.20;5.80;;;;;;;17.83;60.06;98423.51;262745;1089;22764;-71
2021/07/03 20:15:02;;;;;;;8.25;6.80;;;;;;;17.72;60.75;98433.26;262932;1090;22779;-72
2021/07/03 20:20:10;;;;;;;8.35;6.50;;;;;;;17.64;61.20;98426.06;262314;1090;25768;-70
2021/07/03 20:25:15;;;;;;;7.60;5.90;;;;;;;17.55;61.16;98435.11;262661;1090;25858;-71
2021/07/03 20:30:21;;;;;;;7.70;6.30;;;;;;;17.46;61.21;98434.48;262029;1090;22843;-72
2021/07/03 20:35:25;;;;;;;6.65;6.05;;;;;;;17.36;61.33;98432.22;261927;1090;22767;-71
2021/07/03 20:40:30;;;;;;;6.67;5.97;;;;;;;17.30;61.54;98430.89;261969;1088;22763;-72
2021/07/03 20:45:33;;;;;;;7.10;5.55;;;;;;;17.25;61.74;98437.31;262532;1088;22807;-72
2021/07/03 20:50:37;;;;;;;6.73;5.93;;;;;;;17.21;61.66;98437.22;261305;1090;25973;-72
2021/07/03 20:55:40;;;;;;;7.10;5.70;;;;;;;17.14;61.57;98438.91;262639;1088;22927;-72
2021/07/03 21:00:44;;;;;;;6.20;5.60;;;;;;;17.07;61.66;98437.57;262377;1090;22779;-71
2021/07/03 21:05:49;;;;;;;6.85;5.70;;;;;;;17.00;61.76;98437.36;262722;1089;25823;-71
2021/07/03 21:10:53;;;;;;;7.05;5.00;;;;;;;16.95;61.88;98439.50;262037;1090;27083;-72
2021/07/03 21:15:57;;;;;;;6.75;5.65;;;;;;;16.89;62.10;98439.72;262769;1090;25935;-72
2021/07/03 21:21:02;;;;;;;8.35;5.80;;;;;;;16.85;62.49;98433.38;262431;1090;22790;-71
2021/07/03 21:26:05;;;;;;;6.15;4.95;;;;;;;16.80;62.44;98439.00;262792;1090;22811;-72
2021/07/03 21:31:09;;;;;;;6.05;4.55;;;;;;;16.72;62.56;98434.52;262154;1090;22894;-71
2021/07/03 21:36:13;;;;;;;6.33;4.40;;;;;;;16.70;62.80;98448.34;262497;1090;22915;-72
2021/07/03 21:41:17;;;;;;;6.75;5.15;;;;;;;16.70;62.87;98451.05;262032;1090;22787;-71
2021/07/03 21:46:20;;;;;;;5.50;5.00;;;;;;;16.64;63.22;98448.92;262020;1090;25906;-72
2021/07/03 21:51:24;;;;;;;5.75;4.60;;;;;;;16.54;63.27;98450.93;261896;1090;23254;-71
2021/07/03 21:56:27;;;;;;;8.10;5.00;;;;;;;16.52;63.72;98445.09;262185;1090;22857;-72
2021/07/03 22:01:31;;;;;;;5.65;4.40;;;;;;;16.47;63.95;98445.29;262064;1090;24458;-71
2021/07/03 22:06:35;;;;;;;5.00;4.50;;;;;;;16.43;63.86;98447.08;262383;1090;24451;-71
2021/07/03 22:11:39;;;;;;;7.00;4.70;;;;;;;16.36;64.02;98438.73;262330;1090;23040;-72
2021/07/03 22:16:43;;;;;;;8.65;4.90;;;;;;;16.33;64.53;98442.12;262460;1090;22854;-73
2021/07/03 22:21:47;;;;;;;5.97;5.37;;;;;;;16.30;65.05;98440.87;262629;1089;22764;-70
2021/07/03 22:26:51;;;;;;;6.33;5.50;;;;;;;16.27;64.95;98441.54;262118;1090;22863;-72
2021/07/03 22:31:54;;;;;;;7.13;5.27;;;;;;;16.20;64.73;98436.67;262003;1090;22825;-73
2021/07/03 22:36:58;;;;;;;8.80;5.13;;;;;;;16.16;64.97;98432.25;262028;1090;22766;-72
2021/07/03 22:42:01;;;;;;;9.15;5.10;;;;;;;16.12;65.11;98428.64;262290;1090;22789;-72
2021/07/03 22:47:05;;;;;;;6.35;5.50;;;;;;;16.05;65.47;98432.69;262749;1090;22818;-72
2021/07/03 22:52:08;;;;;;;6.95;5.05;;;;;;;16.00;65.63;98424.00;262793;1090;22746;-70
2021/07/03 22:57:14;;;;;;;6.37;5.03;;;;;;;15.89;65.74;98429.83;262778;1089;25851;-72
2021/07/03 23:02:18;;;;;;;6.25;5.10;;;;;;;15.79;66.22;98415.91;262809;1090;22819;-71
2021/07/03 23:07:34;;;;;;;9.90;6.20;;;;;;;15.70;66.64;98405.19;262311;1089;24361;-72
2021/07/03 23:12:46;;;;;;;7.80;6.20;;;;;;;15.62;66.87;98406.83;262697;1090;22960;-71
2021/07/03 23:17:51;;;;;;;6.50;5.15;;;;;;;15.54;67.21;98402.28;262656;1089;27542;-72
2021/07/03 23:23:16;;;;;;;6.75;5.05;;;;;;;15.47;67.32;98404.72;262372;1089;22833;-72
2021/07/03 23:28:20;;;;;;;6.95;5.55;;;;;;;15.43;67.61;98398.41;262754;1089;22843;-72
2021/07/03 23:33:24;;;;;;;10.35;7.10;;;;;;;15.37;67.59;98397.81;262652;1089;22797;-72
2021/07/03 23:38:27;;;;;;;10.40;7.25;;;;;;;15.29;67.75;98402.17;261903;1089;25862;-71
2021/07/03 23:43:33;;;;;;;9.30;6.70;;;;;;;15.24;67.93;98396.95;261791;1090;22774;-72
2021/07/03 23:48:37;;;;;;;7.75;6.30;;;;;;;15.19;68.20;98394.45;261937;1089;22950;-72
2021/07/03 23:53:41;;;;;;;8.67;7.70;;;;;;;15.18;68.69;98388.27;262058;1090;22824;-71